Time;durP1;ratioP1;P1;durP2;ratioP2;P2;SDS_P1;SDS_P2;PMS_P1;PMS_P2;Temp;Humidity;BMP_temperature;BMP_pressure;BME280_temperature;BME280_humidity;BME280_pressure;Samples;Min_cycle;Max_cycle;Signal;HPM_P1;HPM_P2
2022/03/08 00:01:33;;;;;;;19.90;14.43;;;3.50;99.90;;;;;;5050521;28;20582;-68
2022/03/08 00:04:01;;;;;;;21.23;15.00;;;3.50;99.90;;;;;;5050562;28;20442;-69
2022/03/08 00:06:28;;;;;;;19.23;14.53;;;3.50;99.90;;;;;;5050491;28;20469;-70
2022/03/08 00:08:55;;;;;;;19.77;14.53;;;3.40;99.90;;;;;;5050524;28;20458;-71
2022/03/08 00:11:23;;;;;;;18.80;14.33;;;3.30;99.90;;;;;;5050385;28;20460;-68
2022/03/08 00:13:51;;;;;;;18.10;13.40;;;3.30;99.90;;;;;;5050235;28;20803;-68
2022/03/08 00:16:20;;;;;;;19.90;15.60;;;3.40;99.90;;;;;;5050235;28;20472;-70
2022/03/08 00:18:49;;;;;;;21.13;16.63;;;3.10;99.90;;;;;;5050404;28;20460;-69
2022/03/08 00:21:16;;;;;;;21.93;14.70;;;3.30;99.90;;;;;;5050418;28;20489;-70
2022/03/08 00:23:43;;;;;;;18.70;14.80;;;3.30;99.90;;;;;;5050223;28;20464;-70
2022/03/08 00:26:10;;;;;;;18.03;14.00;;;3.40;99.90;;;;;;5050155;28;20532;-70
2022/03/08 00:28:38;;;;;;;20.30;14.30;;;3.40;99.90;;;;;;5050295;28;20454;-70
2022/03/08 00:31:05;;;;;;;18.83;13.90;;;3.30;99.90;;;;;;5050185;28;20458;-68
2022/03/08 00:33:34;;;;;;;18.53;13.93;;;3.40;99.90;;;;;;5049977;28;20489;-68
2022/03/08 00:36:02;;;;;;;17.70;12.70;;;3.40;99.90;;;;;;5049998;28;20478;-68
2022/03/08 00:38:29;;;;;;;21.73;14.30;;;3.20;99.90;;;;;;5049804;28;20868;-68
2022/03/08 00:40:56;;;;;;;15.87;13.30;;;3.10;99.90;;;;;;5049583;28;20469;-68
2022/03/08 00:43:23;;;;;;;19.10;14.30;;;3.10;99.90;;;;;;5049944;28;20450;-70
2022/03/08 00:45:50;;;;;;;20.60;14.73;;;3.20;99.90;;;;;;5049884;28;20478;-69
2022/03/08 00:48:17;;;;;;;18.17;13.00;;;3.10;99.90;;;;;;5049562;28;20459;-69
2022/03/08 00:50:46;;;;;;;18.23;13.87;;;3.00;99.90;;;;;;5050079;28;20450;-68
2022/03/08 00:53:14;;;;;;;21.23;15.97;;;3.10;99.90;;;;;;5049807;28;20511;-70
2022/03/08 00:55:41;;;;;;;21.83;15.93;;;3.10;99.90;;;;;;5049833;28;20461;-69
2022/03/08 00:58:08;;;;;;;23.50;16.63;;;3.20;99.90;;;;;;5049852;28;20465;-68
2022/03/08 01:00:38;;;;;;;20.83;14.73;;;3.30;99.90;;;;;;5049836;28;20457;-67
2022/03/08 01:03:05;;;;;;;18.40;13.77;;;3.50;99.90;;;;;;5049799;28;21009;-69
2022/03/08 01:05:33;;;;;;;19.87;14.00;;;3.40;99.90;;;;;;5049269;28;20942;-67
2022/03/08 01:08:03;;;;;;;18.57;13.90;;;3.60;99.90;;;;;;5049213;28;20457;-69
2022/03/08 01:10:30;;;;;;;20.10;13.87;;;3.60;99.90;;;;;;5049609;28;20486;-67
2022/03/08 01:12:58;;;;;;;17.57;13.67;;;3.60;99.90;;;;;;5049778;28;20458;-70
2022/03/08 01:15:26;;;;;;;15.33;12.40;;;3.60;99.90;;;;;;5049675;28;20938;-69
2022/03/08 01:17:54;;;;;;;17.47;13.50;;;3.60;99.90;;;;;;5049611;28;20451;-70
2022/03/08 01:20:21;;;;;;;20.87;16.40;;;3.50;99.90;;;;;;5049586;28;20473;-67
2022/03/08 01:22:49;;;;;;;17.83;12.77;;;3.20;99.90;;;;;;5049267;28;20488;-69
2022/03/08 01:25:19;;;;;;;17.87;13.67;;;3.30;99.90;;;;;;5049280;28;20465;-68
2022/03/08 01:27:46;;;;;;;17.97;13.80;;;3.40;99.90;;;;;;5049020;28;20462;-68
2022/03/08 01:30:16;;;;;;;21.43;14.70;;;3.40;99.90;;;;;;5049480;28;20922;-67
2022/03/08 01:32:43;;;;;;;17.80;15.20;;;3.40;99.90;;;;;;5049117;28;20481;-69
2022/03/08 01:35:11;;;;;;;22.57;15.23;;;3.50;99.90;;;;;;5049129;28;20450;-70
2022/03/08 01:37:38;;;;;;;19.57;13.93;;;3.50;99.90;;;;;;5052931;28;20469;-68
2022/03/08 01:40:08;;;;;;;19.07;12.97;;;3.50;99.90;;;;;;5053251;28;20936;-68
2022/03/08 01:42:36;;;;;;;17.27;13.97;;;3.50;99.90;;;;;;5053280;28;20489;-70
2022/03/08 01:45:05;;;;;;;22.80;15.87;;;3.60;99.90;;;;;;5053557;28;20786;-70
2022/03/08 01:47:32;;;;;;;19.13;15.17;;;3.50;99.90;;;;;;5053047;28;20473;-67
2022/03/08 01:49:59;;;;;;;20.33;15.40;;;3.50;99.90;;;;;;5053168;28;20462;-68
2022/03/08 01:52:28;;;;;;;19.67;14.43;;;3.50;99.90;;;;;;5053166;28;20522;-70
2022/03/08 01:54:55;;;;;;;21.33;15.50;;;3.40;99.90;;;;;;5053225;28;20813;-68
2022/03/08 01:57:25;;;;;;;19.67;15.23;;;3.30;99.90;;;;;;5053034;28;20525;-69
2022/03/08 01:59:54;;;;;;;23.07;15.63;;;3.30;99.90;;;;;;5052910;28;20489;-68
2022/03/08 02:02:22;;;;;;;22.33;14.30;;;2.90;99.90;;;;;;5052684;28;20485;-70
2022/03/08 02:04:50;;;;;;;16.43;13.93;;;2.90;99.90;;;;;;5052972;28;20454;-69
2022/03/08 02:07:17;;;;;;;21.67;15.00;;;2.90;99.90;;;;;;5052884;28;20473;-68
2022/03/08 02:09:44;;;;;;;22.10;15.63;;;2.80;99.90;;;;;;5052885;28;20557;-67
2022/03/08 02:12:12;;;;;;;21.50;14.80;;;2.80;99.90;;;;;;5052859;28;20445;-69
2022/03/08 02:14:41;;;;;;;20.60;15.20;;;2.80;99.90;;;;;;5052540;28;20461;-70
2022/03/08 02:17:10;;;;;;;23.40;17.73;;;3.00;99.90;;;;;;5052680;28;20585;-69
2022/03/08 02:19:37;;;;;;;27.30;16.63;;;3.10;99.90;;;;;;5052564;28;20457;-70
2022/03/08 02:22:07;;;;;;;23.57;16.10;;;3.20;99.90;;;;;;5052669;28;21001;-70
2022/03/08 02:24:34;;;;;;;22.57;16.57;;;3.20;99.90;;;;;;5052647;28;20458;-71
2022/03/08 02:27:01;;;;;;;24.23;16.17;;;3.30;99.90;;;;;;5052337;28;20922;-68
2022/03/08 02:29:29;;;;;;;23.33;15.50;;;3.30;99.90;;;;;;5052469;28;20481;-67
2022/03/08 02:31:56;;;;;;;23.30;15.87;;;3.20;99.90;;;;;;5052213;28;20473;-67
2022/03/08 02:34:23;;;;;;;20.77;15.50;;;3.10;99.90;;;;;;5052234;28;20448;-70
2022/03/08 02:36:58;;;;;;;21.50;15.90;;;2.90;99.90;;;;;;5052452;28;20465;-70
2022/03/08 02:39:27;;;;;;;22.00;15.37;;;3.00;99.90;;;;;;5052429;28;20452;-70
2022/03/08 02:41:54;;;;;;;20.10;14.30;;;3.20;99.90;;;;;;5052380;28;20486;-68
2022/03/08 02:44:21;;;;;;;23.37;17.27;;;3.10;99.90;;;;;;5052212;28;20869;-67
2022/03/08 02:46:48;;;;;;;28.00;16.13;;;3.20;99.90;;;;;;5051754;28;20825;-68
2022/03/08 02:49:15;;;;;;;24.10;16.90;;;3.10;99.90;;;;;;5051371;28;20823;-69
2022/03/08 02:51:42;;;;;;;25.23;16.00;;;3.10;99.90;;;;;;5051666;28;20545;-70
2022/03/08 02:54:09;;;;;;;23.20;16.87;;;2.90;99.90;;;;;;5051888;28;20472;-70
2022/03/08 02:56:38;;;;;;;23.43;15.60;;;3.00;99.90;;;;;;5051703;28;20474;-69
2022/03/08 02:59:06;;;;;;;19.97;16.90;;;3.00;99.90;;;;;;5051857;28;20465;-69
2022/03/08 03:01:33;;;;;;;26.50;17.07;;;3.10;99.90;;;;;;5051932;28;20450;-70
2022/03/08 03:04:00;;;;;;;24.87;18.60;;;3.30;99.90;;;;;;5052052;28;20461;-68
2022/03/08 03:06:27;;;;;;;23.00;17.07;;;3.40;99.90;;;;;;5051868;28;20470;-69
2022/03/08 03:08:54;;;;;;;27.10;17.60;;;3.40;99.90;;;;;;5051555;28;20454;-70
2022/03/08 03:11:21;;;;;;;22.30;15.40;;;3.50;99.90;;;;;;5051583;28;20457;-68
2022/03/08 03:13:49;;;;;;;25.00;16.90;;;3.40;99.90;;;;;;5051696;28;20454;-70
2022/03/08 03:16:16;;;;;;;25.97;17.53;;;3.30;99.90;;;;;;5051640;28;20480;-68
2022/03/08 03:18:44;;;;;;;21.60;15.80;;;3.30;99.90;;;;;;5051647;28;20454;-68
2022/03/08 03:21:11;;;;;;;25.60;17.27;;;3.40;99.90;;;;;;5051125;28;20457;-67
2022/03/08 03:23:38;;;;;;;23.70;16.57;;;3.40;99.90;;;;;;5051429;28;20489;-70
2022/03/08 03:26:05;;;;;;;22.07;15.77;;;3.30;99.90;;;;;;5051336;28;20476;-68
2022/03/08 03:28:32;;;;;;;22.83;16.00;;;3.10;99.90;;;;;;5051474;28;20453;-69
2022/03/08 03:31:01;;;;;;;20.10;15.00;;;3.00;99.90;;;;;;5051417;28;20810;-71
2022/03/08 03:33:28;;;;;;;18.87;14.83;;;3.00;99.90;;;;;;5050724;28;20959;-69
2022/03/08 03:35:55;;;;;;;20.37;15.27;;;2.90;99.90;;;;;;5051008;28;20477;-68
2022/03/08 03:38:22;;;;;;;25.83;18.47;;;2.90;99.90;;;;;;5051036;28;20458;-70
2022/03/08 03:40:49;;;;;;;24.73;16.07;;;3.00;99.90;;;;;;5051157;28;20961;-67
2022/03/08 03:43:16;;;;;;;23.57;16.63;;;3.00;99.90;;;;;;5050640;28;21005;-68
2022/03/08 03:45:43;;;;;;;28.63;18.17;;;3.00;99.90;;;;;;5050982;28;20832;-68
2022/03/08 03:48:12;;;;;;;25.43;16.77;;;3.00;99.90;;;;;;5050954;28;20450;-67
2022/03/08 03:50:39;;;;;;;25.00;17.10;;;3.10;99.90;;;;;;5050923;28;20532;-69
2022/03/08 03:53:06;;;;;;;27.77;17.90;;;3.00;99.90;;;;;;5050831;28;20546;-69
2022/03/08 03:55:33;;;;;;;20.90;16.50;;;3.00;99.90;;;;;;5050913;28;20458;-70
2022/03/08 03:58:00;;;;;;;25.20;16.47;;;3.10;99.90;;;;;;5050890;28;20454;-69
2022/03/08 04:00:28;;;;;;;22.97;16.80;;;3.10;99.90;;;;;;5050412;28;20842;-69
2022/03/08 04:02:55;;;;;;;21.80;16.60;;;3.00;99.90;;;;;;5050322;28;20929;-69
2022/03/08 04:05:24;;;;;;;22.83;15.83;;;2.80;99.90;;;;;;5050626;28;20460;-70
2022/03/08 04:07:51;;;;;;;26.17;17.00;;;2.80;99.90;;;;;;5050822;28;20461;-69
2022/03/08 04:10:18;;;;;;;23.00;16.80;;;2.80;99.90;;;;;;5050735;28;20462;-68
2022/03/08 04:12:45;;;;;;;25.40;17.00;;;2.90;99.90;;;;;;5050708;28;20453;-69
2022/03/08 04:15:12;;;;;;;25.93;18.50;;;3.00;99.90;;;;;;5050717;28;20499;-68
2022/03/08 04:17:40;;;;;;;23.13;15.33;;;3.00;99.90;;;;;;5050343;28;20462;-69
2022/03/08 04:20:09;;;;;;;24.47;17.17;;;3.00;99.90;;;;;;5050543;28;20457;-69
2022/03/08 04:22:38;;;;;;;27.10;17.80;;;2.90;99.90;;;;;;5050519;28;20580;-68
2022/03/08 04:25:07;;;;;;;22.40;16.93;;;2.90;99.90;;;;;;5050588;28;20450;-70
2022/03/08 04:27:34;;;;;;;25.93;17.43;;;2.90;99.90;;;;;;5050305;28;20478;-66
2022/03/08 04:30:01;;;;;;;25.60;17.30;;;2.90;99.90;;;;;;5050352;28;20458;-68
2022/03/08 04:32:28;;;;;;;23.10;17.03;;;3.00;99.90;;;;;;5049760;28;20489;-69
2022/03/08 04:34:55;;;;;;;26.50;19.03;;;3.10;99.90;;;;;;5050257;28;20438;-68
2022/03/08 04:37:23;;;;;;;23.43;16.90;;;3.10;99.90;;;;;;5050188;28;20465;-68
2022/03/08 04:39:52;;;;;;;25.20;17.70;;;3.20;99.90;;;;;;5050302;28;20445;-69
2022/03/08 04:42:20;;;;;;;25.20;19.10;;;3.30;99.90;;;;;;5050113;28;20457;-68
2022/03/08 04:44:47;;;;;;;26.47;17.83;;;3.20;99.90;;;;;;5050047;28;20452;-69
2022/03/08 04:47:14;;;;;;;27.30;18.20;;;3.10;99.90;;;;;;5049896;28;20816;-69
2022/03/08 04:49:41;;;;;;;25.47;17.30;;;3.20;99.90;;;;;;5050187;28;20446;-69
2022/03/08 04:52:08;;;;;;;28.40;18.30;;;3.20;99.90;;;;;;5050215;28;20449;-67
2022/03/08 04:54:36;;;;;;;28.40;18.80;;;3.20;99.90;;;;;;5050128;28;20458;-68
2022/03/08 04:57:05;;;;;;;26.63;18.57;;;3.00;99.90;;;;;;5050059;28;21025;-68
2022/03/08 04:59:32;;;;;;;28.60;19.90;;;3.00;99.90;;;;;;5049675;28;20457;-69
2022/03/08 05:01:59;;;;;;;28.40;17.97;;;3.00;99.90;;;;;;5049779;28;20454;-67
2022/03/08 05:04:26;;;;;;;28.80;21.10;;;3.00;99.90;;;;;;5049818;28;20538;-67
2022/03/08 05:06:53;;;;;;;28.10;20.50;;;3.10;99.90;;;;;;5049772;28;20973;-67
2022/03/08 05:09:21;;;;;;;30.40;19.60;;;3.20;99.90;;;;;;5049696;28;20450;-70
2022/03/08 05:11:48;;;;;;;26.80;18.37;;;3.30;99.90;;;;;;5048910;28;20480;-69
2022/03/08 05:14:17;;;;;;;26.00;19.10;;;3.20;99.90;;;;;;5049684;28;20450;-68
2022/03/08 05:16:44;;;;;;;22.87;16.97;;;3.10;99.90;;;;;;5049522;28;20974;-67
2022/03/08 05:19:11;;;;;;;25.00;16.80;;;3.10;99.90;;;;;;5049652;28;20450;-68
2022/03/08 05:21:38;;;;;;;28.00;19.57;;;3.10;99.90;;;;;;5049647;28;20450;-67
2022/03/08 05:24:06;;;;;;;29.00;20.40;;;3.10;99.90;;;;;;5049399;28;20497;-68
2022/03/08 05:26:33;;;;;;;33.77;21.00;;;3.10;99.90;;;;;;5049453;28;20481;-68
2022/03/08 05:29:00;;;;;;;28.63;20.00;;;3.10;99.90;;;;;;5049448;28;20454;-67
2022/03/08 05:31:28;;;;;;;28.63;18.90;;;3.20;99.90;;;;;;5049638;28;20450;-67
2022/03/08 05:33:55;;;;;;;27.30;20.00;;;3.30;99.90;;;;;;5049315;28;20555;-68
2022/03/08 05:36:22;;;;;;;26.40;18.63;;;3.30;99.90;;;;;;5049323;28;20974;-67
2022/03/08 05:38:49;;;;;;;29.73;20.97;;;3.40;99.90;;;;;;5049068;28;20461;-67
2022/03/08 05:41:17;;;;;;;30.70;20.13;;;3.50;99.90;;;;;;5049350;28;20469;-72
2022/03/08 05:43:44;;;;;;;28.27;20.23;;;3.50;99.90;;;;;;5049302;28;20482;-67
2022/03/08 05:46:11;;;;;;;34.23;21.97;;;3.60;99.90;;;;;;5049371;28;20477;-74
2022/03/08 05:48:39;;;;;;;31.50;21.00;;;3.60;99.90;;;;;;5049519;28;20457;-73
2022/03/08 05:51:07;;;;;;;29.10;21.43;;;3.70;99.90;;;;;;5049498;28;20457;-73
2022/03/08 05:53:34;;;;;;;27.30;20.77;;;3.60;99.90;;;;;;5049110;28;21007;-73
2022/03/08 05:56:01;;;;;;;29.50;21.93;;;3.60;99.90;;;;;;5049141;28;21024;-74
2022/03/08 05:58:28;;;;;;;28.80;21.33;;;3.60;99.90;;;;;;5049218;28;20462;-75
2022/03/08 06:00:55;;;;;;;28.20;19.60;;;3.60;99.90;;;;;;5049322;28;20481;-73
2022/03/08 06:03:22;;;;;;;30.03;20.97;;;3.60;99.90;;;;;;5049185;28;20489;-74
2022/03/08 06:05:50;;;;;;;27.63;20.40;;;3.50;99.90;;;;;;5049308;28;20863;-74
2022/03/08 06:08:17;;;;;;;30.00;21.20;;;3.50;99.90;;;;;;5049196;28;20454;-73
2022/03/08 06:10:45;;;;;;;26.60;19.77;;;3.60;99.90;;;;;;5049094;28;20457;-75
2022/03/08 06:13:12;;;;;;;31.30;20.77;;;3.70;99.90;;;;;;5048084;28;20458;-73
2022/03/08 06:15:39;;;;;;;27.93;19.20;;;3.60;99.90;;;;;;5049022;28;20821;-74
2022/03/08 06:18:06;;;;;;;29.30;21.53;;;3.80;99.90;;;;;;5049130;28;20458;-72
2022/03/08 06:20:33;;;;;;;27.53;20.07;;;3.90;99.90;;;;;;5048834;28;20454;-72
2022/03/08 06:23:01;;;;;;;26.70;20.20;;;3.80;99.90;;;;;;5051096;28;20488;-72
2022/03/08 06:25:28;;;;;;;25.87;18.07;;;3.90;99.90;;;;;;5052401;28;20445;-72
2022/03/08 06:27:56;;;;;;;27.57;19.47;;;3.80;99.90;;;;;;5052490;28;20449;-66
2022/03/08 06:30:23;;;;;;;27.77;20.57;;;4.00;99.90;;;;;;5052557;28;20461;-69
2022/03/08 06:32:50;;;;;;;24.90;18.87;;;3.70;99.90;;;;;;5052000;28;20842;-69
2022/03/08 06:35:18;;;;;;;26.87;19.80;;;3.70;99.90;;;;;;5052230;28;20946;-69
2022/03/08 06:37:45;;;;;;;27.43;18.80;;;3.80;99.90;;;;;;5052378;28;20974;-67
2022/03/08 06:40:14;;;;;;;26.07;18.80;;;3.90;99.90;;;;;;5052389;28;20454;-70
2022/03/08 06:42:41;;;;;;;33.60;19.80;;;3.70;99.90;;;;;;5052668;28;20454;-68
2022/03/08 06:45:08;;;;;;;25.87;19.63;;;3.80;99.90;;;;;;5051992;28;20505;-69
2022/03/08 06:47:38;;;;;;;28.40;20.00;;;3.80;99.90;;;;;;5052381;28;20473;-70
2022/03/08 06:50:06;;;;;;;30.37;20.37;;;4.00;99.90;;;;;;5052064;28;20926;-73
2022/03/08 06:52:33;;;;;;;26.93;20.40;;;4.20;99.90;;;;;;5051636;28;20453;-68
2022/03/08 06:55:00;;;;;;;26.00;20.53;;;4.30;99.90;;;;;;5051800;28;20789;-74
2022/03/08 06:57:29;;;;;;;23.60;17.17;;;4.30;99.90;;;;;;5051992;28;20470;-74
2022/03/08 06:59:56;;;;;;;29.77;18.90;;;4.20;99.90;;;;;;5051898;28;20947;-72
2022/03/08 07:02:25;;;;;;;21.83;16.23;;;4.20;99.90;;;;;;5051804;28;20476;-73
2022/03/08 07:04:52;;;;;;;24.03;17.93;;;4.20;99.90;;;;;;5051706;28;20604;-69
2022/03/08 07:07:19;;;;;;;24.43;17.20;;;4.30;99.90;;;;;;5051620;28;20473;-73
2022/03/08 07:09:47;;;;;;;26.37;18.27;;;4.40;99.90;;;;;;5052020;28;20459;-75
2022/03/08 07:12:14;;;;;;;26.03;19.07;;;4.30;99.90;;;;;;5052000;28;20489;-72
2022/03/08 07:14:43;;;;;;;22.57;17.27;;;4.30;99.90;;;;;;5051501;28;20434;-72
2022/03/08 07:17:10;;;;;;;22.47;16.70;;;4.30;99.90;;;;;;5051808;28;20474;-77
2022/03/08 07:19:37;;;;;;;25.77;17.90;;;4.30;99.90;;;;;;5051565;28;20454;-70
2022/03/08 07:22:04;;;;;;;23.93;17.87;;;4.30;99.90;;;;;;5051165;28;20446;-68
2022/03/08 07:24:31;;;;;;;23.27;17.43;;;4.30;99.90;;;;;;5051543;28;20485;-69
2022/03/08 07:26:59;;;;;;;24.40;17.27;;;4.00;99.90;;;;;;5051381;28;20480;-70
2022/03/08 07:29:26;;;;;;;24.57;16.57;;;4.00;99.90;;;;;;5051257;28;20592;-70
2022/03/08 07:31:54;;;;;;;24.87;16.33;;;4.00;99.90;;;;;;5051149;28;20461;-67
2022/03/08 07:34:21;;;;;;;22.47;16.97;;;4.10;99.90;;;;;;5050803;28;20457;-68
2022/03/08 07:36:48;;;;;;;24.83;17.87;;;4.10;99.90;;;;;;5051338;28;20469;-68
2022/03/08 07:39:15;;;;;;;23.53;17.17;;;4.20;99.90;;;;;;5051266;28;20946;-69
2022/03/08 07:41:42;;;;;;;21.20;16.50;;;4.30;99.90;;;;;;5051248;28;20458;-67
2022/03/08 07:44:09;;;;;;;25.17;17.30;;;4.10;99.90;;;;;;5050652;28;20568;-66
2022/03/08 07:46:37;;;;;;;25.63;17.30;;;4.00;99.90;;;;;;5050965;28;20470;-68
2022/03/08 07:49:05;;;;;;;23.70;18.57;;;3.90;99.90;;;;;;5050701;28;20458;-67
2022/03/08 07:51:32;;;;;;;25.83;16.20;;;3.80;99.90;;;;;;5050861;28;20468;-68
2022/03/08 07:54:00;;;;;;;21.80;15.67;;;3.80;99.90;;;;;;5050838;28;20454;-69
2022/03/08 07:56:27;;;;;;;19.97;15.20;;;3.60;99.90;;;;;;5045580;28;20559;-67
2022/03/08 07:58:55;;;;;;;20.53;14.93;;;3.40;99.90;;;;;;5050640;28;20445;-67
2022/03/08 08:01:23;;;;;;;19.90;14.50;;;3.30;99.90;;;;;;5050392;28;20469;-67
2022/03/08 08:03:50;;;;;;;18.93;13.63;;;3.00;99.90;;;;;;5050553;28;20485;-68
2022/03/08 08:06:18;;;;;;;18.90;14.73;;;3.00;99.90;;;;;;5050660;28;20473;-68
2022/03/08 08:08:45;;;;;;;21.50;15.20;;;3.10;99.90;;;;;;5050693;28;20545;-66
2022/03/08 08:11:12;;;;;;;22.07;16.40;;;2.90;99.90;;;;;;5050225;28;20461;-66
2022/03/08 08:13:40;;;;;;;20.57;15.23;;;2.80;99.90;;;;;;5050273;28;20454;-69
2022/03/08 08:16:07;;;;;;;23.20;16.37;;;2.80;99.90;;;;;;5050308;28;20832;-64
2022/03/08 08:18:34;;;;;;;22.30;15.83;;;2.80;99.90;;;;;;5049917;28;20454;-65
2022/03/08 08:21:02;;;;;;;25.60;16.37;;;2.70;99.90;;;;;;5050534;28;20770;-65
2022/03/08 08:23:30;;;;;;;25.60;18.17;;;2.70;99.90;;;;;;5049999;28;20453;-67
2022/03/08 08:25:57;;;;;;;23.50;16.40;;;2.70;99.90;;;;;;5049859;28;20470;-68
2022/03/08 08:28:24;;;;;;;22.57;16.10;;;2.50;99.90;;;;;;5050214;28;20804;-67
2022/03/08 08:30:51;;;;;;;23.07;17.93;;;2.70;99.90;;;;;;5050282;28;20486;-69
2022/03/08 08:33:18;;;;;;;22.93;17.10;;;2.70;99.90;;;;;;5049828;28;20478;-66
2022/03/08 08:35:45;;;;;;;24.47;17.27;;;2.90;99.90;;;;;;5050089;28;20549;-67
2022/03/08 08:38:13;;;;;;;23.80;17.40;;;3.10;99.90;;;;;;5049871;28;20438;-67
2022/03/08 08:40:42;;;;;;;25.20;17.50;;;3.30;99.90;;;;;;5050136;28;20472;-71
2022/03/08 08:43:09;;;;;;;24.60;17.23;;;3.30;99.90;;;;;;5050010;28;20454;-69
2022/03/08 08:45:37;;;;;;;22.80;17.00;;;3.30;99.90;;;;;;5049692;28;20485;-68
2022/03/08 08:48:05;;;;;;;24.90;18.60;;;3.40;99.90;;;;;;5049823;28;20457;-68
2022/03/08 08:50:32;;;;;;;24.57;17.90;;;3.40;99.90;;;;;;5049680;28;20461;-69
2022/03/08 08:52:59;;;;;;;25.87;17.40;;;3.50;99.90;;;;;;5049510;28;20454;-68
2022/03/08 08:55:27;;;;;;;24.37;16.10;;;3.30;99.90;;;;;;5049281;28;20461;-69
2022/03/08 08:57:55;;;;;;;23.07;15.83;;;2.90;99.90;;;;;;5049455;28;20458;-70
2022/03/08 09:00:22;;;;;;;23.10;16.40;;;2.90;99.90;;;;;;5049531;28;20457;-70
2022/03/08 09:02:49;;;;;;;24.60;17.47;;;2.80;99.90;;;;;;5049652;28;20465;-69
2022/03/08 09:05:16;;;;;;;25.47;17.33;;;2.80;99.90;;;;;;5049449;28;20485;-67
2022/03/08 09:07:43;;;;;;;22.90;17.17;;;2.80;99.90;;;;;;5049510;28;20473;-68
2022/03/08 09:10:11;;;;;;;25.90;17.83;;;2.90;99.90;;;;;;5049196;28;20934;-67
2022/03/08 09:12:38;;;;;;;23.13;15.83;;;2.90;99.90;;;;;;5049274;28;20462;-68
2022/03/08 09:15:08;;;;;;;23.50;17.27;;;3.00;99.90;;;;;;5049453;28;20931;-68
2022/03/08 09:17:37;;;;;;;24.93;18.40;;;3.00;99.90;;;;;;5049463;28;21006;-68
2022/03/08 09:20:05;;;;;;;27.20;18.70;;;2.80;99.90;;;;;;5049251;28;20786;-68
2022/03/08 09:22:32;;;;;;;29.27;19.53;;;2.70;99.90;;;;;;5049509;28;20919;-68
2022/03/08 09:24:59;;;;;;;26.97;18.23;;;2.90;99.90;;;;;;5049230;28;20493;-68
2022/03/08 09:27:26;;;;;;;30.90;20.73;;;2.70;99.90;;;;;;5049413;28;20477;-69
2022/03/08 09:29:53;;;;;;;32.10;20.57;;;2.60;99.90;;;;;;5049283;28;20457;-69
2022/03/08 09:32:22;;;;;;;29.13;19.73;;;2.80;99.90;;;;;;5049185;28;20902;-69
2022/03/08 09:34:49;;;;;;;30.57;21.90;;;2.70;99.90;;;;;;5049519;28;20450;-70
2022/03/08 09:37:16;;;;;;;30.87;20.80;;;2.70;99.90;;;;;;5049210;28;20548;-74
2022/03/08 09:39:43;;;;;;;30.67;21.97;;;2.50;99.90;;;;;;5049251;28;20454;-69
2022/03/08 09:42:10;;;;;;;32.97;22.27;;;2.40;99.90;;;;;;5049186;28;20438;-69
2022/03/08 09:44:38;;;;;;;29.33;21.23;;;2.30;99.90;;;;;;5049322;28;20489;-69
2022/03/08 09:47:06;;;;;;;33.80;21.43;;;2.40;99.90;;;;;;5049099;28;20473;-69
2022/03/08 09:49:35;;;;;;;31.00;21.00;;;2.70;99.90;;;;;;5049145;28;20545;-69
2022/03/08 09:52:02;;;;;;;32.93;20.27;;;2.80;99.90;;;;;;5048955;28;20461;-70
2022/03/08 09:54:29;;;;;;;35.40;23.10;;;3.00;99.90;;;;;;5049050;28;20572;-70
2022/03/08 09:56:56;;;;;;;33.47;23.60;;;3.10;99.90;;;;;;5049770;28;20477;-69
2022/03/08 09:59:29;;;;;;;33.17;22.00;;;3.20;99.90;;;;;;5052913;28;20469;-69
2022/03/08 10:01:56;;;;;;;34.07;22.03;;;3.00;99.90;;;;;;5052627;28;20858;-68
2022/03/08 10:04:23;;;;;;;34.40;22.30;;;3.10;99.90;;;;;;5052912;28;20477;-66
2022/03/08 10:06:52;;;;;;;34.70;22.83;;;3.20;99.90;;;;;;5052881;28;20466;-69
2022/03/08 10:09:21;;;;;;;30.73;21.80;;;3.30;99.90;;;;;;5052940;28;20454;-67
2022/03/08 10:11:51;;;;;;;33.63;21.57;;;3.20;99.90;;;;;;5052640;28;20458;-68
2022/03/08 10:14:31;;;;;;;30.53;22.03;;;3.10;99.90;;;;;;5052491;28;20910;-69
2022/03/08 10:16:58;;;;;;;31.43;22.50;;;3.00;99.90;;;;;;5052228;28;20473;-69
2022/03/08 10:19:25;;;;;;;34.00;22.80;;;3.00;99.90;;;;;;5052477;28;20449;-69
2022/03/08 10:21:55;;;;;;;28.93;18.97;;;3.10;99.90;;;;;;5052167;28;20457;-70
2022/03/08 10:24:24;;;;;;;32.63;21.80;;;3.30;99.90;;;;;;5052484;28;20543;-69
2022/03/08 10:26:53;;;;;;;31.73;22.20;;;3.30;99.90;;;;;;5051988;28;20476;-69
2022/03/08 10:29:27;;;;;;;34.27;22.80;;;3.40;99.90;;;;;;5052447;28;21265;-70
2022/03/08 10:32:06;;;;;;;34.53;23.30;;;3.50;99.90;;;;;;5051542;28;20896;-68
2022/03/08 10:34:34;;;;;;;33.40;23.30;;;3.70;99.90;;;;;;5052287;28;20930;-69
2022/03/08 10:37:07;;;;;;;34.80;22.60;;;3.60;99.90;;;;;;5051820;28;20470;-69
2022/03/08 10:39:34;;;;;;;32.50;22.90;;;3.40;99.90;;;;;;5052137;28;20460;-70
2022/03/08 10:42:02;;;;;;;35.37;24.23;;;3.50;99.90;;;;;;5051728;28;20971;-70
2022/03/08 10:44:39;;;;;;;39.40;24.00;;;3.70;99.90;;;;;;5052147;28;20503;-69
2022/03/08 10:47:09;;;;;;;37.07;25.97;;;3.60;99.90;;;;;;5051801;28;20474;-68
2022/03/08 10:49:51;;;;;;;32.03;21.63;;;3.50;99.90;;;;;;5051533;28;20508;-69
2022/03/08 10:52:27;;;;;;;32.20;22.97;;;3.50;99.90;;;;;;5051854;28;20457;-69
2022/03/08 10:54:54;;;;;;;37.00;24.30;;;3.40;99.90;;;;;;5051221;28;20556;-70
2022/03/08 10:57:21;;;;;;;30.97;23.00;;;3.30;99.90;;;;;;5051740;28;20551;-70
2022/03/08 10:59:55;;;;;;;36.93;25.37;;;3.30;99.90;;;;;;5051716;28;20465;-70
2022/03/08 11:02:24;;;;;;;31.10;22.63;;;3.30;99.90;;;;;;5051469;28;20481;-70
2022/03/08 11:05:08;;;;;;;30.47;20.87;;;3.40;99.90;;;;;;5051741;28;20492;-74
2022/03/08 11:07:37;;;;;;;33.33;22.43;;;3.20;99.90;;;;;;5051683;28;20535;-74
2022/03/08 11:10:06;;;;;;;27.93;20.40;;;3.00;99.90;;;;;;5050413;28;20446;-74
2022/03/08 11:12:34;;;;;;;33.20;21.43;;;3.00;99.90;;;;;;5051468;28;20789;-77
2022/03/08 11:15:02;;;;;;;33.50;23.63;;;3.20;99.90;;;;;;5051100;28;20453;-71
2022/03/08 11:17:29;;;;;;;36.07;22.37;;;3.10;99.90;;;;;;5048291;28;20541;-71
2022/03/08 11:19:58;;;;;;;32.20;22.87;;;3.00;99.90;;;;;;5048309;28;20973;-72
2022/03/08 11:22:25;;;;;;;32.03;22.07;;;3.10;99.90;;;;;;5050810;28;20454;-71
2022/03/08 11:24:54;;;;;;;28.07;20.97;;;3.10;99.90;;;;;;5051307;28;20489;-71
2022/03/08 11:27:22;;;;;;;34.20;23.60;;;3.20;99.90;;;;;;5051428;28;20500;-72
2022/03/08 11:29:50;;;;;;;34.13;22.70;;;3.30;99.90;;;;;;5051322;28;20465;-72
2022/03/08 11:32:22;;;;;;;33.80;23.33;;;3.50;99.90;;;;;;5051062;28;20485;-72
2022/03/08 11:34:56;;;;;;;34.60;23.40;;;3.70;99.90;;;;;;5050917;28;20450;-70
2022/03/08 11:37:27;;;;;;;32.60;22.97;;;3.90;99.90;;;;;;5050666;28;20505;-74
2022/03/08 11:40:10;;;;;;;31.03;23.00;;;4.00;99.90;;;;;;5051138;28;20454;-70
2022/03/08 11:42:41;;;;;;;37.90;24.00;;;4.00;99.90;;;;;;5051207;28;20458;-71
2022/03/08 11:45:11;;;;;;;34.00;24.20;;;3.80;99.90;;;;;;5050994;28;21005;-70
2022/03/08 11:47:41;;;;;;;30.40;21.57;;;3.70;99.90;;;;;;5050586;28;20484;-69
2022/03/08 11:50:21;;;;;;;29.90;21.20;;;3.80;99.90;;;;;;5050536;28;20859;-72
2022/03/08 11:53:03;;;;;;;34.17;23.30;;;3.90;99.90;;;;;;5050800;28;20472;-69
2022/03/08 11:55:32;;;;;;;31.43;22.07;;;3.90;99.90;;;;;;5050688;28;20489;-72
2022/03/08 11:58:01;;;;;;;28.60;22.27;;;4.00;99.90;;;;;;5050816;28;20494;-71
2022/03/08 12:00:42;;;;;;;31.57;21.27;;;4.10;99.90;;;;;;5050478;28;20549;-73
2022/03/08 12:03:14;;;;;;;26.70;20.07;;;4.20;99.90;;;;;;5050576;28;20446;-70
2022/03/08 12:05:58;;;;;;;27.80;20.40;;;4.30;99.90;;;;;;5050747;28;20579;-69
2022/03/08 12:09:09;;;;;;;32.30;21.13;;;4.40;99.90;;;;;;5050797;28;20511;-72
2022/03/08 12:11:41;;;;;;;29.17;20.10;;;4.50;99.90;;;;;;5050664;28;20450;-71
2022/03/08 12:14:12;;;;;;;28.00;20.70;;;4.60;99.90;;;;;;5050637;28;20454;-72
2022/03/08 12:16:40;;;;;;;33.50;21.43;;;4.30;99.90;;;;;;5050879;28;20509;-71
2022/03/08 12:19:12;;;;;;;30.17;21.07;;;4.50;99.90;;;;;;5050103;28;20484;-71
2022/03/08 12:21:42;;;;;;;28.83;21.07;;;4.60;99.90;;;;;;5049965;28;20818;-72
2022/03/08 12:24:18;;;;;;;34.37;20.93;;;4.70;99.90;;;;;;5050081;28;20453;-69
2022/03/08 12:27:12;;;;;;;30.70;21.70;;;4.60;99.90;;;;;;5050132;28;20497;-70
2022/03/08 12:29:51;;;;;;;28.70;19.73;;;4.60;99.90;;;;;;5040254;28;20458;-70
2022/03/08 12:32:33;;;;;;;24.67;18.87;;;4.40;99.90;;;;;;5049912;28;20482;-69
2022/03/08 12:35:19;;;;;;;33.97;20.30;;;4.50;99.90;;;;;;5049805;28;20492;-72
2022/03/08 12:37:52;;;;;;;26.93;20.07;;;4.70;99.90;;;;;;5049970;28;20469;-70
2022/03/08 12:40:25;;;;;;;26.13;19.63;;;4.90;99.90;;;;;;5050153;28;20450;-72
2022/03/08 12:42:56;;;;;;;31.37;21.00;;;4.90;99.90;;;;;;5050049;28;20449;-71